createdAt,value
2022-09-20T00:00:26.372Z,12.35
2022-09-20T00:03:27.770Z,8.05
2022-09-20T00:06:31.451Z,7.95
2022-09-20T00:09:32.861Z,10.07
2022-09-20T00:12:34.284Z,10.90
2022-09-20T00:15:41.267Z,6.95
2022-09-20T00:18:42.873Z,9.32
2022-09-20T00:21:44.327Z,15.00
2022-09-20T00:24:48.983Z,9.77
2022-09-20T00:27:50.608Z,12.32
2022-09-20T00:30:53.756Z,10.15
2022-09-20T00:33:56.808Z,9.90
2022-09-20T00:36:58.207Z,10.70
2022-09-20T00:39:59.623Z,11.90
2022-09-20T00:43:01.056Z,10.35
2022-09-20T00:46:03.891Z,7.20
2022-09-20T00:49:16.360Z,10.32
2022-09-20T00:52:18.290Z,11.93
2022-09-20T00:55:20.225Z,9.95
2022-09-20T00:58:24.839Z,6.50
2022-09-20T01:01:26.372Z,10.63
2022-09-20T01:04:29.023Z,10.52
2022-09-20T01:07:30.578Z,10.98
2022-09-20T01:10:32.418Z,9.23
2022-09-20T01:13:33.832Z,8.05
2022-09-20T01:16:37.327Z,6.85
2022-09-20T01:20:01.519Z,8.00
2022-09-20T01:23:28.306Z,9.32
2022-09-20T01:26:48.521Z,6.65
2022-09-20T01:30:11.908Z,8.40
2022-09-20T01:33:32.561Z,12.00
2022-09-20T01:36:54.769Z,13.82
2022-09-20T01:40:11.277Z,11.30
2022-09-20T01:43:24.841Z,9.02
2022-09-20T01:46:34.410Z,9.57
2022-09-20T01:49:52.644Z,8.48
2022-09-20T01:53:27.311Z,9.88
2022-09-20T01:56:47.078Z,10.07
2022-09-20T01:59:54.573Z,7.05
2022-09-20T02:03:17.678Z,6.90
2022-09-20T02:06:47.628Z,7.28
2022-09-20T02:10:01.908Z,8.20
2022-09-20T02:13:11.151Z,10.10
2022-09-20T02:16:27.812Z,14.02
2022-09-20T02:19:46.591Z,10.30
2022-09-20T02:23:05.561Z,9.32
2022-09-20T02:26:22.744Z,8.77
2022-09-20T02:29:51.393Z,9.60
2022-09-20T02:33:23.114Z,6.63
2022-09-20T02:37:01.785Z,6.20
2022-09-20T02:40:42.513Z,7.60
2022-09-20T02:43:51.359Z,7.57
2022-09-20T02:47:30.112Z,10.82
2022-09-20T02:51:02.492Z,6.15
2022-09-20T02:54:35.333Z,9.07
2022-09-20T02:58:04.511Z,8.88
2022-09-20T03:01:35.020Z,8.20
2022-09-20T03:04:51.297Z,9.27
2022-09-20T03:08:24.806Z,5.97
2022-09-20T03:11:37.962Z,7.32
2022-09-20T03:15:02.755Z,7.22
2022-09-20T03:21:28.184Z,7.47
2022-09-20T03:24:57.037Z,11.95
2022-09-20T03:28:38.416Z,9.88
2022-09-20T03:31:53.758Z,9.23
2022-09-20T03:35:24.493Z,12.55
2022-09-20T03:38:28.550Z,6.30
2022-09-20T03:42:07.430Z,5.45
2022-09-20T03:45:39.289Z,9.85
2022-09-20T03:49:25.666Z,8.75
2022-09-20T03:52:33.538Z,12.13
2022-09-20T03:56:12.597Z,8.88
2022-09-20T03:59:42.159Z,9.85
2022-09-20T04:02:46.609Z,13.35
2022-09-20T04:05:48.015Z,11.63
2022-09-20T04:09:04.714Z,9.20
2022-09-20T04:12:12.014Z,7.25
2022-09-20T04:15:41.562Z,10.27
2022-09-20T04:19:01.515Z,9.25
2022-09-20T04:22:03.545Z,8.25
2022-09-20T04:25:36.087Z,8.93
2022-09-20T04:28:51.704Z,8.43
2022-09-20T04:32:19.492Z,10.00
2022-09-20T04:35:32.837Z,11.15
2022-09-20T04:38:34.762Z,9.50
2022-09-20T04:42:10.343Z,14.13
2022-09-20T04:45:35.295Z,17.20
2022-09-20T04:49:09.083Z,9.68
2022-09-20T04:52:35.023Z,14.63
2022-09-20T04:55:55.719Z,6.90
2022-09-20T04:59:10.259Z,9.85
2022-09-20T05:05:56.330Z,9.20
2022-09-20T05:09:25.875Z,6.75
2022-09-20T05:12:45.468Z,14.32
2022-09-20T05:16:21.617Z,15.32
2022-09-20T05:19:43.305Z,8.20
2022-09-20T05:22:59.877Z,15.10
2022-09-20T05:26:12.677Z,12.55
2022-09-20T05:29:17.549Z,14.02
2022-09-20T05:32:41.616Z,8.88
2022-09-20T05:36:10.742Z,11.32
2022-09-20T05:39:24.883Z,11.70
2022-09-20T05:42:48.119Z,8.45
2022-09-20T05:46:10.748Z,9.55
2022-09-20T05:49:31.127Z,7.80
2022-09-20T05:52:54.278Z,8.15
2022-09-20T05:56:14.429Z,11.45
2022-09-20T05:59:29.471Z,7.45
2022-09-20T06:02:44.660Z,11.30
2022-09-20T06:06:13.957Z,12.90
2022-09-20T06:09:29.714Z,11.23
2022-09-20T06:12:46.885Z,10.88
2022-09-20T06:15:58.456Z,8.00
2022-09-20T06:19:18.142Z,7.45
2022-09-20T06:22:24.683Z,13.20
2022-09-20T06:25:38.719Z,12.02
2022-09-20T06:28:46.053Z,8.38
2022-09-20T06:31:47.459Z,7.03
2022-09-20T06:34:49.917Z,7.10
2022-09-20T06:38:00.862Z,7.78
2022-09-20T06:41:03.771Z,6.70
2022-09-20T06:44:05.323Z,8.15
2022-09-20T06:47:10.407Z,9.50
2022-09-20T06:50:15.846Z,7.85
2022-09-20T06:53:20.975Z,6.45
2022-09-20T06:56:26.452Z,7.47
2022-09-20T06:59:27.921Z,7.85
2022-09-20T07:02:29.362Z,6.07
2022-09-20T07:05:30.823Z,3.30
2022-09-20T07:08:32.358Z,5.28
2022-09-20T07:11:33.801Z,5.07
2022-09-20T07:14:35.200Z,5.10
2022-09-20T07:17:36.602Z,6.38
2022-09-20T07:20:38.037Z,5.82
2022-09-20T07:23:39.568Z,6.35
2022-09-20T07:26:54.750Z,5.50
2022-09-20T07:29:56.152Z,6.55
2022-09-20T07:32:57.545Z,4.88
2022-09-20T07:35:58.975Z,5.47
2022-09-20T07:39:00.392Z,8.65
2022-09-20T07:42:01.808Z,4.82
2022-09-20T07:45:03.598Z,4.88
2022-09-20T07:48:08.048Z,6.05
2022-09-20T07:51:12.007Z,6.30
2022-09-20T07:54:13.466Z,6.20
2022-09-20T07:57:14.872Z,7.55
2022-09-20T08:00:16.592Z,12.85
2022-09-20T08:03:18.049Z,6.13
2022-09-20T08:06:19.512Z,4.85
2022-09-20T08:09:20.995Z,9.40
2022-09-20T08:15:43.834Z,7.13
2022-09-20T08:18:52.791Z,7.28
2022-09-20T08:21:54.731Z,6.18
2022-09-20T08:24:56.131Z,6.55
2022-09-20T08:27:57.557Z,8.43
2022-09-20T08:31:10.514Z,8.15
2022-09-20T08:34:13.140Z,12.53
2022-09-20T08:37:14.530Z,3.00
2022-09-20T08:40:16.027Z,3.95
2022-09-20T08:43:22.362Z,10.30
2022-09-20T08:46:28.838Z,3.47
2022-09-20T08:49:30.670Z,7.38
2022-09-20T08:52:36.967Z,8.77
2022-09-20T08:55:40.314Z,6.00
2022-09-20T08:58:42.003Z,7.05
2022-09-20T09:01:43.455Z,8.95
2022-09-20T09:04:45.992Z,5.78
2022-09-20T09:07:47.420Z,10.18
2022-09-20T09:10:53.106Z,8.80
2022-09-20T09:14:02.832Z,6.68
2022-09-20T09:17:04.296Z,5.55
2022-09-20T09:20:18.192Z,8.85
2022-09-20T09:23:23.948Z,6.63
2022-09-20T09:26:25.468Z,5.43
2022-09-20T09:29:26.893Z,6.00
2022-09-20T09:32:31.703Z,7.68
2022-09-20T09:35:35.811Z,6.45
2022-09-20T09:38:42.401Z,9.23
2022-09-20T09:41:44.146Z,4.75
2022-09-20T09:44:45.575Z,5.18
2022-09-20T09:47:47.050Z,7.43
2022-09-20T09:51:11.526Z,6.38
2022-09-20T09:54:17.716Z,6.90
2022-09-20T09:57:19.075Z,6.25
2022-09-20T10:00:23.052Z,5.50
2022-09-20T10:03:57.071Z,4.15
2022-09-20T10:07:25.553Z,8.43
2022-09-20T10:10:26.989Z,6.85
2022-09-20T10:13:51.756Z,3.85
2022-09-20T10:17:33.158Z,6.65
2022-09-20T10:20:48.838Z,3.97
2022-09-20T10:24:04.341Z,3.05
2022-09-20T10:27:43.277Z,5.88
2022-09-20T10:30:50.548Z,4.28
2022-09-20T10:34:37.088Z,6.30
2022-09-20T10:38:00.325Z,4.75
2022-09-20T10:41:12.232Z,4.00
2022-09-20T10:44:49.020Z,4.05
2022-09-20T10:47:57.328Z,2.33
2022-09-20T10:51:10.876Z,2.67
2022-09-20T10:54:32.321Z,3.00
2022-09-20T10:58:05.280Z,5.05
2022-09-20T11:01:23.659Z,4.45
2022-09-20T11:04:53.854Z,3.30
2022-09-20T11:08:20.825Z,3.65
2022-09-20T11:11:34.361Z,4.25
2022-09-20T11:14:43.937Z,2.78
2022-09-20T11:18:13.434Z,6.60
2022-09-20T11:21:24.866Z,4.18
2022-09-20T11:24:32.106Z,3.10
2022-09-20T11:27:39.941Z,3.75
2022-09-20T11:31:04.227Z,3.70
2022-09-20T11:37:32.682Z,4.00
2022-09-20T11:40:38.317Z,2.83
2022-09-20T11:43:43.809Z,4.28
2022-09-20T11:46:55.345Z,2.60
2022-09-20T11:50:17.850Z,3.75
2022-09-20T11:53:27.793Z,4.10
2022-09-20T11:56:32.764Z,3.28
2022-09-20T11:59:55.807Z,4.07
2022-09-20T12:02:58.564Z,4.57
2022-09-20T12:06:02.583Z,5.30
2022-09-20T12:09:20.761Z,4.38
2022-09-20T12:12:32.581Z,5.57
2022-09-20T12:15:40.227Z,4.15
2022-09-20T12:18:53.895Z,3.42
2022-09-20T12:21:58.092Z,3.13
2022-09-20T12:25:44.984Z,4.10
2022-09-20T12:28:54.561Z,4.30
2022-09-20T12:32:00.112Z,8.55
2022-09-20T12:35:01.626Z,8.45
2022-09-20T12:38:21.307Z,7.63
2022-09-20T12:41:28.200Z,3.05
2022-09-20T12:44:32.791Z,1.13
2022-09-20T12:47:37.127Z,4.40
2022-09-20T12:50:38.793Z,5.53
2022-09-20T12:53:40.253Z,3.25
2022-09-20T12:56:42.115Z,3.20
2022-09-20T12:59:43.595Z,5.93
2022-09-20T13:02:51.233Z,4.30
2022-09-20T13:06:05.975Z,4.68
2022-09-20T13:09:09.612Z,4.30
2022-09-20T13:12:11.134Z,4.30
2022-09-20T13:15:18.994Z,5.25
2022-09-20T13:18:21.552Z,4.50
2022-09-20T13:21:23.364Z,6.43
2022-09-20T13:24:26.370Z,4.28
2022-09-20T13:27:33.122Z,2.22
2022-09-20T13:30:34.610Z,1.52
2022-09-20T13:33:35.993Z,2.85
2022-09-20T13:36:37.728Z,5.18
2022-09-20T13:39:39.256Z,3.38
2022-09-20T13:42:40.724Z,3.90
2022-09-20T13:45:47.409Z,3.25
2022-09-20T13:48:53.704Z,4.25
2022-09-20T13:51:55.118Z,3.05
2022-09-20T13:54:57.064Z,5.65
2022-09-20T13:58:08.409Z,3.20
2022-09-20T14:01:23.900Z,2.45
2022-09-20T14:04:28.372Z,3.30
2022-09-20T14:07:31.059Z,1.92
2022-09-20T14:10:38.178Z,3.55
2022-09-20T14:13:51.533Z,6.03
2022-09-20T14:16:56.205Z,4.23
2022-09-20T14:19:57.783Z,5.20
2022-09-20T14:22:59.935Z,2.80
2022-09-20T14:26:16.365Z,6.65
2022-09-20T14:29:51.463Z,2.65
2022-09-20T14:32:56.024Z,6.10
2022-09-20T14:35:57.692Z,4.13
2022-09-20T14:39:03.281Z,5.13
2022-09-20T14:42:28.734Z,2.42
2022-09-20T14:45:36.267Z,3.78
2022-09-20T14:48:39.874Z,2.72
2022-09-20T14:51:41.269Z,3.35
2022-09-20T14:54:42.680Z,3.20
2022-09-20T14:57:45.216Z,3.13
2022-09-20T15:00:57.405Z,3.35
2022-09-20T15:03:59.256Z,2.22
2022-09-20T15:07:03.447Z,3.30
2022-09-20T15:13:10.875Z,3.47
2022-09-20T15:16:18.579Z,7.47
2022-09-20T15:19:20.024Z,4.03
2022-09-20T15:22:21.433Z,3.25
2022-09-20T15:25:22.921Z,5.20
2022-09-20T15:28:24.351Z,4.47
2022-09-20T15:31:25.885Z,3.50
2022-09-20T15:34:27.317Z,5.00
2022-09-20T15:37:28.923Z,3.08
2022-09-20T15:40:30.568Z,2.17
2022-09-20T15:43:32.283Z,3.05
2022-09-20T15:46:34.396Z,1.73
2022-09-20T15:49:35.786Z,2.65
2022-09-20T15:52:39.329Z,1.58
2022-09-20T15:55:40.747Z,6.50
2022-09-20T15:58:46.789Z,3.10
2022-09-20T16:01:48.880Z,3.90
2022-09-20T16:04:50.316Z,1.25
2022-09-20T16:07:51.721Z,3.60
2022-09-20T16:11:00.093Z,4.18
2022-09-20T16:14:01.859Z,6.03
2022-09-20T16:17:03.299Z,2.53
2022-09-20T16:20:05.095Z,6.13
2022-09-20T16:23:06.515Z,4.97
2022-09-20T16:26:09.131Z,6.25
2022-09-20T16:29:10.607Z,5.90
2022-09-20T16:32:12.035Z,5.57
2022-09-20T16:35:13.458Z,8.20
2022-09-20T16:38:14.856Z,3.53
2022-09-20T16:41:16.322Z,7.05
2022-09-20T16:44:17.761Z,6.35
2022-09-20T16:47:19.165Z,3.70
2022-09-20T16:50:20.552Z,3.83
2022-09-20T16:53:21.964Z,5.18
2022-09-20T16:56:26.201Z,9.75
2022-09-20T16:59:27.863Z,5.50
2022-09-20T17:02:29.269Z,5.93
2022-09-20T17:05:30.673Z,3.80
2022-09-20T17:08:32.833Z,2.75
2022-09-20T17:11:39.380Z,4.82
2022-09-20T17:14:40.802Z,4.97
2022-09-20T17:17:42.227Z,9.15
2022-09-20T17:20:43.627Z,2.67
2022-09-20T17:23:50.793Z,7.63
2022-09-20T17:26:52.661Z,4.05
2022-09-20T17:29:54.092Z,5.00
2022-09-20T17:32:55.486Z,7.38
2022-09-20T17:35:57.173Z,4.90
2022-09-20T17:39:04.146Z,6.45
2022-09-20T17:42:06.342Z,5.35
2022-09-20T17:45:08.317Z,6.72
2022-09-20T17:48:09.719Z,6.00
2022-09-20T17:51:12.616Z,4.78
2022-09-20T17:54:14.693Z,5.60
2022-09-20T17:57:16.083Z,7.13
2022-09-20T18:00:17.492Z,7.18
2022-09-20T18:03:18.913Z,5.20
2022-09-20T18:06:23.615Z,9.02
2022-09-20T18:09:25.575Z,7.97
2022-09-20T18:12:26.977Z,7.32
2022-09-20T18:15:28.384Z,7.22
2022-09-20T18:18:31.169Z,6.72
2022-09-20T18:21:33.667Z,9.73
2022-09-20T18:24:35.092Z,6.47
2022-09-20T18:27:36.526Z,10.30
2022-09-20T18:30:37.909Z,4.82
2022-09-20T18:33:39.295Z,3.88
2022-09-20T18:36:41.287Z,5.63
2022-09-20T18:39:42.963Z,8.25
2022-09-20T18:42:46.805Z,8.25
2022-09-20T18:45:51.952Z,8.20
2022-09-20T18:48:58.566Z,6.50
2022-09-20T18:52:00.153Z,4.28
2022-09-20T18:55:01.627Z,4.47
2022-09-20T18:58:03.258Z,4.28
2022-09-20T19:01:29.043Z,7.25
2022-09-20T19:04:51.481Z,3.10
2022-09-20T19:08:12.888Z,6.18
2022-09-20T19:11:28.397Z,7.90
2022-09-20T19:14:44.144Z,5.32
2022-09-20T19:17:51.300Z,9.30
2022-09-20T19:21:11.124Z,6.22
2022-09-20T19:24:34.107Z,7.10
2022-09-20T19:27:35.831Z,7.25
2022-09-20T19:30:37.560Z,7.78
2022-09-20T19:33:39.403Z,6.10
2022-09-20T19:36:56.318Z,6.18
2022-09-20T19:40:07.177Z,7.57
2022-09-20T19:43:30.427Z,5.70
2022-09-20T19:46:42.614Z,10.93
2022-09-20T19:50:07.896Z,3.70
2022-09-20T19:53:09.572Z,7.13
2022-09-20T19:56:24.900Z,7.03
2022-09-20T19:59:27.872Z,6.32
2022-09-20T20:02:29.659Z,8.30
2022-09-20T20:05:31.446Z,7.93
2022-09-20T20:09:04.708Z,7.90
2022-09-20T20:12:17.320Z,9.13
2022-09-20T20:15:44.080Z,5.55
2022-09-20T20:18:54.333Z,7.20
2022-09-20T20:22:08.108Z,7.47
2022-09-20T20:25:35.156Z,7.18
2022-09-20T20:28:36.883Z,6.75
2022-09-20T20:31:38.384Z,7.05
2022-09-20T20:34:39.789Z,10.07
2022-09-20T20:37:41.180Z,8.70
2022-09-20T20:40:42.580Z,4.50
2022-09-20T20:43:45.447Z,5.38
2022-09-20T20:46:47.728Z,4.25
2022-09-20T20:49:52.583Z,6.00
2022-09-20T20:52:55.084Z,7.40
2022-09-20T20:56:01.474Z,5.80
2022-09-20T20:59:04.576Z,5.15
2022-09-20T21:02:08.079Z,7.05
2022-09-20T21:05:09.652Z,7.07
2022-09-20T21:08:11.092Z,6.30
2022-09-20T21:11:15.894Z,5.93
2022-09-20T21:14:17.414Z,6.50
2022-09-20T21:17:18.813Z,7.47
2022-09-20T21:20:20.746Z,11.15
2022-09-20T21:23:22.197Z,7.20
2022-09-20T21:26:25.987Z,6.33
2022-09-20T21:29:27.420Z,6.28
2022-09-20T21:32:28.885Z,6.97
2022-09-20T21:35:30.516Z,7.38
2022-09-20T21:38:31.977Z,7.25
2022-09-20T21:41:35.680Z,5.43
2022-09-20T21:44:37.057Z,7.97
2022-09-20T21:47:38.474Z,11.55
2022-09-20T21:50:39.873Z,7.38
2022-09-20T21:53:41.564Z,10.88
2022-09-20T21:56:42.964Z,5.28
2022-09-20T21:59:44.358Z,6.25
2022-09-20T22:02:45.744Z,7.65
2022-09-20T22:05:47.157Z,9.65
2022-09-20T22:08:54.089Z,10.48
2022-09-20T22:11:55.513Z,8.38
2022-09-20T22:14:56.920Z,8.68
2022-09-20T22:17:58.325Z,7.35
2022-09-20T22:21:08.687Z,8.77
2022-09-20T22:24:11.377Z,5.68
2022-09-20T22:27:13.098Z,7.50
2022-09-20T22:30:14.715Z,11.10
2022-09-20T22:33:16.266Z,10.27
2022-09-20T22:36:21.055Z,9.50
2022-09-20T22:39:22.595Z,8.52
2022-09-20T22:42:24.153Z,6.05
2022-09-20T22:45:25.682Z,9.00
2022-09-20T22:48:29.258Z,9.48
2022-09-20T22:51:32.181Z,8.00
2022-09-20T22:54:33.709Z,8.65
2022-09-20T22:57:35.979Z,6.75
2022-09-20T23:00:37.505Z,6.53
2022-09-20T23:03:40.535Z,7.40
2022-09-20T23:06:44.915Z,7.53
2022-09-20T23:09:46.442Z,8.82
2022-09-20T23:12:51.472Z,7.18
2022-09-20T23:15:54.104Z,6.93
2022-09-20T23:18:57.412Z,6.57
2022-09-20T23:21:58.955Z,5.63
2022-09-20T23:25:00.483Z,9.65
2022-09-20T23:28:02.075Z,8.93
2022-09-20T23:31:09.745Z,10.27
2022-09-20T23:34:11.378Z,8.02
2022-09-20T23:37:12.871Z,7.47
2022-09-20T23:40:14.585Z,8.38
2022-09-20T23:43:16.161Z,9.07
2022-09-20T23:46:19.372Z,7.80
2022-09-20T23:49:20.905Z,9.35
2022-09-20T23:52:22.473Z,6.95
2022-09-20T23:55:24.104Z,8.90
2022-09-20T23:58:25.884Z,8.43
